Stations météo

réclame
Mon MeteoGroup
Zugspitze, Allemagne (10961): Température de l'air & dewpoint: 19.02.2018 10:00:00 - 25.02.2018 10:00:00 (CET)Zugspitze, Allemagne (10961): Vitesse du vent & gusts: 19.02.2018 10:00:00 - 25.02.2018 10:00:00 (CET)Zugspitze, Allemagne (10961): Direction du vent: 19.02.2018 10:00:00 - 25.02.2018 10:00:00 (CET)Zugspitze, Allemagne (10961): visibility: 19.02.2018 10:00:00 - 25.02.2018 10:00:00 (CET)Zugspitze, Allemagne (10961): Ensoleillement: 19.02.2018 10:00:00 - 25.02.2018 10:00:00 (CET)
Date & Time tt [°C] td [°C] ff [km/h] ff [knt] fx [km/h] fx [knt] dd vv [km] sd [min]
25.02.2018 10:00:00 -17,4 -34,2 16 9 47 25 E 82 60
25.02.2018 09:00:00 -17,4 -33,5 20 11 37 20 E 82 36
25.02.2018 08:00:00 -16,8 -35,5 23 13 40 22 ENE 82 42
25.02.2018 07:00:00 -16,9 -35,2 20 11 39 21 E 82 0
25.02.2018 06:00:00 -16,0 -34,6 20 11 36 20 E 82 0
25.02.2018 05:00:00 -15,7 -35,8 21 11 31 17 ENE - 0
25.02.2018 04:00:00 -12,1 -20,8 8 4 24 13 N - 0
25.02.2018 03:00:00 -12,1 -21,5 13 7 22 12 N - 0
25.02.2018 02:00:00 -11,5 -21,0 11 6 27 15 N - 0
25.02.2018 01:00:00 -11,1 -22,2 13 7 19 11 N - 0
25.02.2018 00:00:00 -9,5 -21,3 13 7 18 10 NNE - 0
24.02.2018 23:00:00 -9,4 -19,8 11 6 22 12 NNE - 0
24.02.2018 22:00:00 -8,9 -20,2 14 8 29 16 N - 0
24.02.2018 21:00:00 -8,6 -21,0 22 12 29 16 NNE 82 0
24.02.2018 20:00:00 -9,3 -21,7 14 8 32 18 E 82 0
24.02.2018 19:00:00 -9,0 -20,9 21 11 31 17 E 82 5
24.02.2018 18:00:00 -9,0 -13,0 19 11 31 17 SE 82 60
24.02.2018 17:00:00 -7,9 -10,9 21 11 28 15 ESE 82 60
24.02.2018 16:00:00 -6,8 -11,6 19 10 28 15 SE 82 60
24.02.2018 15:00:00 -6,8 -13,2 19 11 27 15 SE 82 60
24.02.2018 14:00:00 -5,9 -14,3 16 8 29 15 SE 82 60
24.02.2018 13:00:00 -6,4 -14,8 12 7 19 11 ESE 82 60
24.02.2018 12:00:00 -6,3 -12,7 9 5 23 13 N 82 60
24.02.2018 11:00:00 -6,7 -15,7 13 7 26 14 N 82 60
24.02.2018 10:00:00 -6,6 -11,5 9 5 18 10 ENE 82 60
24.02.2018 09:00:00 -5,2 -9,6 7 4 12 6 E 82 60
24.02.2018 08:00:00 -5,4 -9,3 3 1 16 9 NNE 82 44
24.02.2018 07:00:00 -6,3 -9,7 14 8 26 14 WNW 82 0
24.02.2018 06:00:00 -6,5 -9,9 14 8 22 12 N 82 0
24.02.2018 05:00:00 -7,0 -9,8 17 9 20 11 N - 0
24.02.2018 04:00:00 -7,0 -9,9 9 5 15 8 N - 0
24.02.2018 03:00:00 -7,1 -9,6 14 8 23 12 SSE - 0
24.02.2018 02:00:00 -7,6 -9,6 14 8 40 22 SE - 0
24.02.2018 01:00:00 -8,2 -10,2 37 20 47 26 SE - 0
24.02.2018 00:00:00 -8,2 -10,6 41 22 56 30 SE - 0
23.02.2018 23:00:00 -8,4 -11,4 50 27 67 36 SE - 0
23.02.2018 22:00:00 -9,2 -12,3 50 27 73 40 SE - 0
23.02.2018 21:00:00 -9,7 -12,4 47 25 61 33 SE 82 0
23.02.2018 20:00:00 -9,1 -12,5 44 24 58 31 SE 82 0
23.02.2018 19:00:00 -9,2 -12,3 38 20 63 34 SE 82 0
23.02.2018 18:00:00 -9,7 -12,2 47 25 60 32 SE 82 43
23.02.2018 17:00:00 -9,1 -12,3 43 23 49 26 SE 82 60
23.02.2018 16:00:00 -8,3 -12,9 29 16 41 22 SE 82 60
23.02.2018 15:00:00 -9,5 -12,8 36 19 53 28 SE 82 59
23.02.2018 14:00:00 -9,6 -12,3 42 23 62 33 SE 82 60
23.02.2018 13:00:00 -10,4 -12,6 47 26 57 31 SE 82 60
23.02.2018 12:00:00 -10,5 -12,8 36 19 53 28 SE 82 60
23.02.2018 11:00:00 -9,3 -13,5 41 22 61 33 SE 82 59
23.02.2018 10:00:00 -9,5 -14,6 31 17 48 26 SE 82 51
23.02.2018 09:00:00 -10,2 -14,8 22 12 41 22 SE 82 23
23.02.2018 08:00:00 -11,4 -14,4 31 17 46 25 ESE 82 0
23.02.2018 07:00:00 -11,2 -14,9 13 7 24 13 ENE 82 0
23.02.2018 06:00:00 -11,6 -15,9 12 6 33 18 ENE 82 0
23.02.2018 05:00:00 -12,6 -15,9 22 12 34 19 E - 0
23.02.2018 04:00:00 -12,5 -15,4 21 11 46 25 SE - 0
23.02.2018 03:00:00 -12,7 -15,8 27 15 39 21 ESE - 0
23.02.2018 02:00:00 -12,7 -15,7 23 12 29 16 SE - 0
23.02.2018 01:00:00 -12,8 -16,3 14 8 21 11 E - 0
23.02.2018 00:00:00 -13,3 -15,8 11 6 21 11 SE - 0
22.02.2018 23:00:00 -13,2 -15,5 17 9 27 15 SSE - 0
22.02.2018 22:00:00 -13,3 -15,5 20 11 31 17 S - 0
22.02.2018 21:00:00 -14,5 -16,1 32 17 42 23 SE 35 0
22.02.2018 20:00:00 -14,7 -16,2 36 19 47 25 SE 25 0
22.02.2018 19:00:00 -14,2 -15,6 40 22 51 28 SE 30 0
22.02.2018 18:00:00 -13,7 -15,0 32 18 39 21 SE 1,5 0
22.02.2018 17:00:00 -13,3 -14,8 29 15 36 19 SE 25 0
22.02.2018 16:00:00 -13,0 -14,8 29 16 44 24 SE 70 12
22.02.2018 15:00:00 -13,1 -15,1 37 20 51 28 SE 70 38
22.02.2018 14:00:00 -12,9 -15,3 41 22 62 33 SE 80 60
22.02.2018 13:00:00 -13,5 -15,5 48 26 66 36 SE 82 60
22.02.2018 12:00:00 -13,2 -15,1 56 31 69 37 SE 80 28
22.02.2018 11:00:00 -13,2 -15,0 51 27 57 31 SE 45 38
22.02.2018 10:00:00 -13,7 -15,5 46 25 74 40 SE 70 60
22.02.2018 09:00:00 -12,6 -14,3 47 26 69 38 SE 12 21
22.02.2018 08:00:00 -13,1 -14,8 49 26 73 40 SE 50 0
22.02.2018 07:00:00 -13,6 -15,4 46 25 77 41 SE 82 0
22.02.2018 06:00:00 -14,1 -15,9 50 27 76 41 ESE 82 0
22.02.2018 05:00:00 -14,0 -15,7 44 24 60 33 ESE - 0
22.02.2018 04:00:00 -14,1 -15,8 32 18 59 32 ESE - 0
22.02.2018 03:00:00 -15,1 -16,8 42 23 60 33 ESE - 0
22.02.2018 02:00:00 -15,6 -17,2 33 18 71 38 ESE - 0
22.02.2018 01:00:00 -15,1 -16,7 40 21 80 43 ESE - 0
22.02.2018 00:00:00 -15,1 -16,7 39 21 62 34 SE - 0
21.02.2018 23:00:00 -15,4 -16,9 37 20 76 41 SE - 0
21.02.2018 22:00:00 -15,8 -17,5 38 20 73 39 ESE - 0
21.02.2018 21:00:00 -15,9 -17,6 37 20 69 37 ESE 0,1 0
21.02.2018 20:00:00 -17,0 -18,8 27 15 59 32 E 0,1 0
21.02.2018 19:00:00 -17,0 -18,7 24 13 55 30 ESE 0,1 0
21.02.2018 18:00:00 -15,9 -17,6 36 19 61 33 ESE 0,1 2
21.02.2018 17:00:00 -15,3 -17,2 42 23 69 38 ESE 0,1 39
21.02.2018 16:00:00 -15,4 -17,1 28 15 70 38 ESE 0,1 41
21.02.2018 15:00:00 -14,8 -17,1 37 20 62 34 ESE 82 60
21.02.2018 14:00:00 -15,0 -17,0 34 18 77 41 ESE 82 60
21.02.2018 13:00:00 -15,5 -17,4 41 22 75 40 SE 80 60
21.02.2018 12:00:00 -15,9 -17,8 40 22 77 42 SE 20 60
21.02.2018 11:00:00 -15,9 -17,9 42 23 74 40 ESE 0,3 59
21.02.2018 10:00:00 -16,6 -18,5 41 22 64 35 SE 0,3 14
21.02.2018 09:00:00 -18,0 -19,8 32 17 61 33 ESE 0,2 0
21.02.2018 08:00:00 -17,8 -19,5 34 18 54 29 ESE 0,1 0
21.02.2018 07:00:00 -18,7 -20,5 30 16 49 27 ESE 0,1 0
21.02.2018 06:00:00 -18,1 -19,9 27 15 49 26 ESE 0,1 0
21.02.2018 05:00:00 -17,8 -19,6 24 13 45 25 ESE - 0
21.02.2018 04:00:00 -18,0 -19,6 23 13 41 22 ESE - 0
21.02.2018 03:00:00 -18,1 -19,8 24 13 50 27 ESE - 0
21.02.2018 02:00:00 -18,4 -20,2 21 11 43 23 ESE - 0
21.02.2018 01:00:00 -18,4 -20,2 20 11 37 20 E - 0
21.02.2018 00:00:00 -18,6 -20,2 13 7 29 16 E - 0
20.02.2018 23:00:00 -18,5 -20,3 16 9 25 14 N - 0
20.02.2018 22:00:00 -18,3 -20,0 12 6 21 11 NNE - 0
20.02.2018 21:00:00 -18,1 -19,7 7 4 14 7 N 0,2 0
20.02.2018 20:00:00 -17,9 -19,5 6 3 11 6 N 0,1 0
20.02.2018 19:00:00 -17,8 -19,3 6 4 13 7 N 0,1 0
20.02.2018 18:00:00 -17,4 -18,8 5 3 9 5 N 0,1 0
20.02.2018 17:00:00 -16,9 -18,3 5 3 14 8 NNW 0,1 0
20.02.2018 16:00:00 -16,1 -17,9 5 3 9 5 SSE 0,1 1
20.02.2018 15:00:00 -15,0 -17,8 4 2 11 6 SSE 0,1 35
20.02.2018 14:00:00 -13,9 -17,5 6 3 10 5 SSE 0,1 60
20.02.2018 13:00:00 -14,0 -17,0 5 3 13 7 NE 0,2 35
20.02.2018 12:00:00 -14,7 -16,8 7 4 16 9 NE 0,3 29
20.02.2018 11:00:00 -15,4 -17,4 8 5 20 11 N 0,6 0
20.02.2018 10:00:00 -15,9 -17,6 6 3 19 11 N 0,2 1
20.02.2018 09:00:00 -15,4 -16,9 11 6 29 16 N 0,3 45
20.02.2018 08:00:00 -15,0 -17,5 20 11 35 19 N 82 16
20.02.2018 07:00:00 -13,9 -20,7 26 14 34 19 N 82 0
20.02.2018 06:00:00 -14,0 -26,1 25 13 35 19 NNW 82 0
20.02.2018 05:00:00 -16,8 -24,6 27 14 33 18 WNW - 0
20.02.2018 04:00:00 -15,7 -25,6 26 14 37 20 WNW - 0
20.02.2018 03:00:00 -16,3 -25,5 31 17 39 21 WNW - 0
20.02.2018 02:00:00 -16,3 -25,4 32 17 41 22 W - 0
20.02.2018 01:00:00 -16,1 -23,6 30 16 46 25 W - 0
20.02.2018 00:00:00 -15,8 -23,3 34 18 44 24 W - 0
19.02.2018 23:00:00 -15,1 -22,6 31 17 45 24 NNW - 0
19.02.2018 22:00:00 -15,0 -21,4 26 14 39 21 NW - 0
19.02.2018 21:00:00 -15,2 -20,3 25 13 37 20 NW 82 0
19.02.2018 20:00:00 -15,4 -19,9 27 15 38 20 W 82 0
19.02.2018 19:00:00 -15,1 -19,7 28 15 36 20 W 82 0
19.02.2018 18:00:00 -14,7 -18,0 27 14 36 19 W 82 21
19.02.2018 17:00:00 -14,6 -17,9 29 15 34 18 W 82 60
19.02.2018 16:00:00 -12,0 -15,7 8 4 12 6 NNW 82 60
19.02.2018 15:00:00 -10,5 -14,2 9 5 12 6 WNW 82 60
19.02.2018 14:00:00 -8,9 -13,0 5 3 11 6 WNW 82 60
19.02.2018 13:00:00 -9,2 -13,2 4 2 10 5 SSW 82 60
19.02.2018 12:00:00 -9,3 -13,2 6 3 11 6 S 82 60
19.02.2018 11:00:00 -9,5 -13,8 9 5 13 7 ESE 82 60
19.02.2018 10:00:00 -10,3 -14,9 9 5 16 8 ESE 82 60

tt = Température de l'air
td = dewpoint
ff = Vitesse du vent
fx = gusts
dd = Direction du vent
vv = visibility
sd = Ensoleillement

stations d'obs. à proximité